createdAt,value
2018-07-20T00:00:13.927Z,4.00
2018-07-20T00:02:47.323Z,3.33
2018-07-20T00:05:20.703Z,4.58
2018-07-20T00:07:54.100Z,4.10
2018-07-20T00:10:27.508Z,5.40
2018-07-20T00:13:00.891Z,4.35
2018-07-20T00:15:34.283Z,4.10
2018-07-20T00:18:07.914Z,4.60
2018-07-20T00:20:41.313Z,4.10
2018-07-20T00:23:14.729Z,4.35
2018-07-20T00:25:48.123Z,4.00
2018-07-20T00:28:21.535Z,4.08
2018-07-20T00:30:54.953Z,4.12
2018-07-20T00:33:28.386Z,4.10
2018-07-20T00:36:01.735Z,4.42
2018-07-20T00:38:35.139Z,4.22
2018-07-20T00:41:08.609Z,4.00
2018-07-20T00:43:41.998Z,3.87
2018-07-20T00:46:15.413Z,4.55
2018-07-20T00:48:48.898Z,4.12
2018-07-20T00:51:22.279Z,4.37
2018-07-20T00:53:55.670Z,3.70
2018-07-20T00:56:29.082Z,4.65
2018-07-20T00:59:02.493Z,3.75
2018-07-20T01:01:35.880Z,4.55
2018-07-20T01:04:09.275Z,4.08
2018-07-20T01:06:42.640Z,3.67
2018-07-20T01:09:16.107Z,5.35
2018-07-20T01:11:49.475Z,4.40
2018-07-20T01:14:23.188Z,4.00
2018-07-20T01:16:56.620Z,3.60
2018-07-20T01:19:30.007Z,3.90
2018-07-20T01:22:03.455Z,3.98
2018-07-20T01:24:36.876Z,4.20
2018-07-20T01:27:10.272Z,5.67
2018-07-20T01:29:43.655Z,3.92
2018-07-20T01:32:17.028Z,3.77
2018-07-20T01:34:50.476Z,4.20
2018-07-20T01:37:23.838Z,4.12
2018-07-20T01:39:57.319Z,4.08
2018-07-20T01:42:30.705Z,4.08
2018-07-20T01:45:04.255Z,4.35
2018-07-20T01:47:37.894Z,4.17
2018-07-20T01:50:11.281Z,4.33
2018-07-20T01:52:44.652Z,4.28
2018-07-20T01:55:18.049Z,4.30
2018-07-20T01:57:51.448Z,3.67
2018-07-20T02:00:24.854Z,3.85
2018-07-20T02:02:58.237Z,4.20
2018-07-20T02:05:31.645Z,3.87
2018-07-20T02:08:05.061Z,3.72
2018-07-20T02:10:38.507Z,3.75
2018-07-20T02:13:11.955Z,4.50
2018-07-20T02:15:45.387Z,4.55
2018-07-20T02:18:18.831Z,4.42
2018-07-20T02:20:52.290Z,4.45
2018-07-20T02:23:25.701Z,4.97
2018-07-20T02:25:59.135Z,3.75
2018-07-20T02:28:32.536Z,4.22
2018-07-20T02:31:05.945Z,3.77
2018-07-20T02:33:39.351Z,4.17
2018-07-20T02:36:12.732Z,4.40
2018-07-20T02:38:46.248Z,3.70
2018-07-20T02:41:19.649Z,4.05
2018-07-20T02:43:53.072Z,4.10
2018-07-20T02:46:26.495Z,4.25
2018-07-20T02:48:59.987Z,3.77
2018-07-20T02:51:33.492Z,3.05
2018-07-20T02:54:06.922Z,3.70
2018-07-20T02:56:40.335Z,3.83
2018-07-20T02:59:13.815Z,4.35
2018-07-20T03:01:47.226Z,4.00
2018-07-20T03:04:20.636Z,4.08
2018-07-20T03:06:54.028Z,3.80
2018-07-20T03:09:27.467Z,4.15
2018-07-20T03:12:00.849Z,4.50
2018-07-20T03:14:34.256Z,3.77
2018-07-20T03:17:07.657Z,3.85
2018-07-20T03:19:41.081Z,3.75
2018-07-20T03:22:14.460Z,3.90
2018-07-20T03:24:47.880Z,4.45
2018-07-20T03:27:21.292Z,4.17
2018-07-20T03:29:54.810Z,4.12
2018-07-20T03:32:28.219Z,4.60
2018-07-20T03:35:01.645Z,3.70
2018-07-20T03:37:35.382Z,4.37
2018-07-20T03:40:08.828Z,3.77
2018-07-20T03:42:42.295Z,3.50
2018-07-20T03:45:15.689Z,3.95
2018-07-20T03:47:49.073Z,4.10
2018-07-20T03:50:22.479Z,4.80
2018-07-20T03:52:55.870Z,3.90
2018-07-20T03:55:29.296Z,4.20
2018-07-20T03:58:02.737Z,4.05
2018-07-20T04:00:37.661Z,3.92
2018-07-20T04:03:11.394Z,3.72
2018-07-20T04:05:44.868Z,3.65
2018-07-20T04:08:18.258Z,3.65
2018-07-20T04:10:51.689Z,3.55
2018-07-20T04:13:25.083Z,3.30
2018-07-20T04:15:58.515Z,3.55
2018-07-20T04:18:32.031Z,3.62
2018-07-20T04:21:05.579Z,3.33
2018-07-20T04:23:38.971Z,3.47
2018-07-20T04:26:18.351Z,3.80
2018-07-20T04:28:52.427Z,3.90
2018-07-20T04:31:25.813Z,3.30
2018-07-20T04:33:59.180Z,3.20
2018-07-20T04:36:32.683Z,3.25
2018-07-20T04:39:10.020Z,3.33
2018-07-20T04:41:43.964Z,3.87
2018-07-20T04:44:17.354Z,3.37
2018-07-20T04:46:50.760Z,3.22
2018-07-20T04:49:24.131Z,3.25
2018-07-20T04:51:57.579Z,3.25
2018-07-20T04:54:30.995Z,3.22
2018-07-20T04:57:04.475Z,3.62
2018-07-20T04:59:37.855Z,3.75
2018-07-20T05:02:11.334Z,3.90
2018-07-20T05:04:44.719Z,3.27
2018-07-20T05:07:18.117Z,3.70
2018-07-20T05:09:51.645Z,3.00
2018-07-20T05:12:25.030Z,3.22
2018-07-20T05:14:58.501Z,3.75
2018-07-20T05:17:31.931Z,3.08
2018-07-20T05:20:05.428Z,3.22
2018-07-20T05:22:39.449Z,3.30
2018-07-20T05:25:12.857Z,2.80
2018-07-20T05:27:46.250Z,3.08
2018-07-20T05:30:19.665Z,2.87
2018-07-20T05:32:53.039Z,3.27
2018-07-20T05:35:26.446Z,3.22
2018-07-20T05:37:59.855Z,3.27
2018-07-20T05:40:33.232Z,3.17
2018-07-20T05:43:06.783Z,2.60
2018-07-20T05:45:40.201Z,2.33
2018-07-20T05:48:13.574Z,2.95
2018-07-20T05:50:47.155Z,2.47
2018-07-20T05:53:20.632Z,2.67
2018-07-20T05:55:54.025Z,2.20
2018-07-20T05:58:27.462Z,2.67
2018-07-20T06:01:00.911Z,2.65
2018-07-20T06:03:34.303Z,2.70
2018-07-20T06:06:07.694Z,2.55
2018-07-20T06:08:41.069Z,2.72
2018-07-20T06:11:14.465Z,2.60
2018-07-20T06:13:47.907Z,2.37
2018-07-20T06:16:21.328Z,2.15
2018-07-20T06:18:54.708Z,2.42
2018-07-20T06:21:28.206Z,2.62
2018-07-20T06:24:01.580Z,2.40
2018-07-20T06:26:34.971Z,2.67
2018-07-20T06:29:08.372Z,2.30
2018-07-20T06:31:41.815Z,2.47
2018-07-20T06:34:15.207Z,2.62
2018-07-20T06:36:48.622Z,2.37
2018-07-20T06:39:22.030Z,2.12
2018-07-20T06:41:55.420Z,2.33
2018-07-20T06:44:29.581Z,2.42
2018-07-20T06:47:03.023Z,2.15
2018-07-20T06:49:36.524Z,1.95
2018-07-20T06:52:10.078Z,2.20
2018-07-20T06:54:43.505Z,2.20
2018-07-20T06:57:16.937Z,2.22
2018-07-20T06:59:50.867Z,2.12
2018-07-20T07:02:25.031Z,2.15
2018-07-20T07:04:58.592Z,1.80
2018-07-20T07:07:32.016Z,2.00
2018-07-20T07:10:06.188Z,1.92
2018-07-20T07:12:39.742Z,1.65
2018-07-20T07:15:13.130Z,1.92
2018-07-20T07:17:46.581Z,2.20
2018-07-20T07:20:19.996Z,2.00
2018-07-20T07:22:53.415Z,1.98
2018-07-20T07:25:26.817Z,1.85
2018-07-20T07:28:00.260Z,2.05
2018-07-20T07:30:33.668Z,1.90
2018-07-20T07:33:07.094Z,1.75
2018-07-20T07:35:40.498Z,1.70
2018-07-20T07:38:13.925Z,1.60
2018-07-20T07:40:47.291Z,1.90
2018-07-20T07:43:20.803Z,1.80
2018-07-20T07:45:54.162Z,2.00
2018-07-20T07:48:27.643Z,2.02
2018-07-20T07:51:01.030Z,1.98
2018-07-20T07:53:34.431Z,2.00
2018-07-20T07:56:07.853Z,1.80
2018-07-20T07:58:41.222Z,2.10
2018-07-20T08:01:14.589Z,1.52
2018-07-20T08:03:48.014Z,1.55
2018-07-20T08:06:21.395Z,1.70
2018-07-20T08:08:54.790Z,1.62
2018-07-20T08:11:28.155Z,1.77
2018-07-20T08:14:01.543Z,1.60
2018-07-20T08:16:34.916Z,1.57
2018-07-20T08:19:08.344Z,1.67
2018-07-20T08:21:41.709Z,1.85
2018-07-20T08:24:15.008Z,1.87
2018-07-20T08:26:48.339Z,1.67
2018-07-20T08:29:21.774Z,1.40
2018-07-20T08:31:55.033Z,1.42
2018-07-20T08:34:28.409Z,1.80
2018-07-20T08:37:01.750Z,1.40
2018-07-20T08:39:35.064Z,1.32
2018-07-20T08:42:08.433Z,1.95
2018-07-20T08:44:41.785Z,1.47
2018-07-20T08:47:15.107Z,1.45
2018-07-20T08:49:48.420Z,1.82
2018-07-20T08:52:21.851Z,1.70
2018-07-20T08:54:55.138Z,1.77
2018-07-20T08:57:28.553Z,1.98
2018-07-20T09:00:01.941Z,1.67
2018-07-20T09:02:35.219Z,1.70
2018-07-20T09:05:08.567Z,1.70
2018-07-20T09:07:42.973Z,1.50
2018-07-20T09:10:16.331Z,1.70
2018-07-20T09:12:49.647Z,1.30
2018-07-20T09:15:22.956Z,1.62
2018-07-20T09:17:57.079Z,1.62
2018-07-20T09:20:30.447Z,1.67
2018-07-20T09:23:03.847Z,1.55
2018-07-20T09:25:37.172Z,1.72
2018-07-20T09:28:10.693Z,1.47
2018-07-20T09:30:43.996Z,1.60
2018-07-20T09:33:17.336Z,1.70
2018-07-20T09:35:50.656Z,1.70
2018-07-20T09:38:23.988Z,1.85
2018-07-20T09:40:58.374Z,1.75
2018-07-20T09:43:31.743Z,1.82
2018-07-20T09:46:05.156Z,1.57
2018-07-20T09:48:38.484Z,1.47
2018-07-20T09:51:11.794Z,1.45
2018-07-20T09:53:45.170Z,1.50
2018-07-20T09:56:18.693Z,1.47
2018-07-20T09:58:52.367Z,1.77
2018-07-20T10:01:26.544Z,1.50
2018-07-20T10:03:59.907Z,1.75
2018-07-20T10:06:33.281Z,1.50
2018-07-20T10:09:09.866Z,1.67
2018-07-20T10:11:43.248Z,1.62
2018-07-20T10:14:16.680Z,1.47
2018-07-20T10:16:50.504Z,1.57
2018-07-20T10:24:16.209Z,1.75
2018-07-20T10:26:50.163Z,1.47
2018-07-20T10:29:23.578Z,1.30
2018-07-20T10:31:57.006Z,1.45
2018-07-20T10:34:30.546Z,1.50
2018-07-20T10:37:04.052Z,1.32
2018-07-20T10:39:37.543Z,1.37
2018-07-20T10:42:11.058Z,1.50
2018-07-20T10:44:44.580Z,1.57
2018-07-20T10:47:17.991Z,1.27
2018-07-20T10:49:51.438Z,1.75
2018-07-20T10:52:24.825Z,1.57
2018-07-20T10:54:58.498Z,1.50
2018-07-20T10:57:32.280Z,1.35
2018-07-20T11:00:06.121Z,1.65
2018-07-20T11:02:39.494Z,1.30
2018-07-20T11:05:12.945Z,1.70
2018-07-20T11:07:46.342Z,1.40
2018-07-20T11:10:19.865Z,1.65
2018-07-20T11:12:53.878Z,1.62
2018-07-20T11:15:27.399Z,1.60
2018-07-20T11:18:00.818Z,1.87
2018-07-20T11:20:34.955Z,2.12
2018-07-20T11:23:08.355Z,1.70
2018-07-20T11:25:41.857Z,1.50
2018-07-20T11:28:15.316Z,1.72
2018-07-20T11:30:48.855Z,1.70
2018-07-20T11:33:22.245Z,1.85
2018-07-20T11:35:55.716Z,1.90
2018-07-20T11:38:29.162Z,1.85
2018-07-20T11:41:02.579Z,1.80
2018-07-20T11:43:36.350Z,1.87
2018-07-20T11:46:10.610Z,1.82
2018-07-20T11:48:43.987Z,1.70
2018-07-20T11:51:18.076Z,2.42
2018-07-20T11:53:51.463Z,2.90
2018-07-20T11:56:24.889Z,2.42
2018-07-20T11:58:58.310Z,3.12
2018-07-20T12:01:31.718Z,2.35
2018-07-20T12:04:05.226Z,2.67
2018-07-20T12:06:38.640Z,2.70
2018-07-20T12:09:12.771Z,2.90
2018-07-20T12:11:46.195Z,2.20
2018-07-20T12:14:20.232Z,2.60
2018-07-20T12:16:53.680Z,2.80
2018-07-20T12:19:27.103Z,2.83
2018-07-20T12:22:00.532Z,2.20
2018-07-20T12:24:33.924Z,2.90
2018-07-20T12:27:07.560Z,2.30
2018-07-20T12:29:41.071Z,2.00
2018-07-20T12:32:14.515Z,2.20
2018-07-20T12:34:48.008Z,3.02
2018-07-20T12:37:21.408Z,2.58
2018-07-20T12:39:54.815Z,2.20
2018-07-20T12:42:28.245Z,2.60
2018-07-20T12:45:01.653Z,2.47
2018-07-20T12:47:35.086Z,2.35
2018-07-20T12:50:09.143Z,2.52
2018-07-20T12:52:42.647Z,2.52
2018-07-20T12:55:16.051Z,2.40
2018-07-20T12:57:49.538Z,2.67
2018-07-20T13:00:23.075Z,2.22
2018-07-20T13:02:56.485Z,2.22
2018-07-20T13:05:29.887Z,2.52
2018-07-20T13:08:03.295Z,2.47
2018-07-20T13:10:39.274Z,2.58
2018-07-20T13:13:12.681Z,2.33
2018-07-20T13:15:46.114Z,2.55
2018-07-20T13:18:19.525Z,2.67
2018-07-20T13:20:53.485Z,2.75
2018-07-20T13:23:27.346Z,2.40
2018-07-20T13:26:00.844Z,2.70
2018-07-20T13:28:34.769Z,2.80
2018-07-20T13:31:08.300Z,2.42
2018-07-20T13:33:41.868Z,2.30
2018-07-20T13:36:15.367Z,2.37
2018-07-20T13:38:48.771Z,2.50
2018-07-20T13:41:22.182Z,2.65
2018-07-20T13:43:55.591Z,2.85
2018-07-20T13:46:28.987Z,2.17
2018-07-20T13:49:02.966Z,2.40
2018-07-20T13:51:36.435Z,2.60
2018-07-20T13:54:09.925Z,2.50
2018-07-20T13:56:43.401Z,2.77
2018-07-20T13:59:16.843Z,2.65
2018-07-20T14:01:50.291Z,2.58
2018-07-20T14:04:23.839Z,2.60
2018-07-20T14:06:57.310Z,2.70
2018-07-20T14:09:30.720Z,2.80
2018-07-20T14:12:04.264Z,2.60
2018-07-20T14:14:37.649Z,2.72
2018-07-20T14:17:11.344Z,2.70
2018-07-20T14:19:44.775Z,2.92
2018-07-20T14:22:18.774Z,2.70
2018-07-20T14:24:52.357Z,3.00
2018-07-20T14:27:25.808Z,2.75
2018-07-20T14:29:59.206Z,2.90
2018-07-20T14:32:33.083Z,2.80
2018-07-20T14:35:06.589Z,2.77
2018-07-20T14:37:40.127Z,2.92
2018-07-20T14:40:13.515Z,2.92
2018-07-20T14:42:46.917Z,2.90
2018-07-20T14:45:20.323Z,3.00
2018-07-20T14:47:53.841Z,2.65
2018-07-20T14:50:27.296Z,2.92
2018-07-20T14:53:00.729Z,2.95
2018-07-20T14:55:34.148Z,3.15
2018-07-20T14:58:07.574Z,3.30
2018-07-20T15:00:40.959Z,3.05
2018-07-20T15:03:14.441Z,3.02
2018-07-20T15:05:47.816Z,2.85
2018-07-20T15:08:21.250Z,3.37
2018-07-20T15:10:54.782Z,3.40
2018-07-20T15:13:28.231Z,3.15
2018-07-20T15:16:01.620Z,3.00
2018-07-20T15:18:35.166Z,3.47
2018-07-20T15:21:08.667Z,3.33
2018-07-20T15:23:42.082Z,2.87
2018-07-20T15:26:15.452Z,2.98
2018-07-20T15:28:48.888Z,3.30
2018-07-20T15:31:22.356Z,3.20
2018-07-20T15:33:55.866Z,3.15
2018-07-20T15:36:29.287Z,3.33
2018-07-20T15:39:02.863Z,3.25
2018-07-20T15:41:36.383Z,3.90
2018-07-20T15:44:09.803Z,3.42
2018-07-20T15:46:43.342Z,3.35
2018-07-20T15:49:17.780Z,3.95
2018-07-20T15:54:25.841Z,3.12
2018-07-20T15:56:59.563Z,3.33
2018-07-20T15:59:33.780Z,3.45
2018-07-20T16:02:07.631Z,3.70
2018-07-20T16:04:41.841Z,3.30
2018-07-20T16:07:15.611Z,3.45
2018-07-20T16:09:49.625Z,3.62
2018-07-20T16:12:23.981Z,3.42
2018-07-20T16:14:57.900Z,3.17
2018-07-20T16:17:31.884Z,3.40
2018-07-20T16:20:06.321Z,3.30
2018-07-20T16:22:40.185Z,3.92
2018-07-20T16:25:14.292Z,3.62
2018-07-20T16:27:48.465Z,3.30
2018-07-20T16:30:22.296Z,3.15
2018-07-20T16:32:57.432Z,3.72
2018-07-20T16:35:31.342Z,3.47
2018-07-20T16:38:05.334Z,3.27
2018-07-20T16:40:39.522Z,2.85
2018-07-20T16:43:13.414Z,3.45
2018-07-20T16:45:47.669Z,3.15
2018-07-20T16:48:21.946Z,3.37
2018-07-20T16:50:55.894Z,3.60
2018-07-20T16:53:29.927Z,3.72
2018-07-20T16:56:04.674Z,3.15
2018-07-20T16:58:38.720Z,3.17
2018-07-20T17:01:12.596Z,3.10
2018-07-20T17:03:46.704Z,2.92
2018-07-20T17:06:20.526Z,3.30
2018-07-20T17:08:54.599Z,3.30
2018-07-20T17:11:28.671Z,3.37
2018-07-20T17:14:02.878Z,3.27
2018-07-20T17:16:37.344Z,3.33
2018-07-20T17:19:11.446Z,3.25
2018-07-20T17:21:45.782Z,3.22
2018-07-20T17:24:20.477Z,3.12
2018-07-20T17:26:54.416Z,3.45
2018-07-20T17:29:28.507Z,4.20
2018-07-20T17:32:02.292Z,4.30
2018-07-20T17:34:36.881Z,3.60
2018-07-20T17:37:10.936Z,3.87
2018-07-20T17:39:50.451Z,4.25
2018-07-20T17:42:24.576Z,4.03
2018-07-20T17:44:58.463Z,3.70
2018-07-20T17:47:32.323Z,3.35
2018-07-20T17:50:09.332Z,3.60
2018-07-20T17:52:44.862Z,3.45
2018-07-20T17:55:21.099Z,3.40
2018-07-20T17:57:55.074Z,3.72
2018-07-20T18:00:29.290Z,3.50
2018-07-20T18:03:04.093Z,3.80
2018-07-20T18:05:38.880Z,3.72
2018-07-20T18:08:12.479Z,3.45
2018-07-20T18:10:46.157Z,3.37
2018-07-20T18:13:19.799Z,3.70
2018-07-20T18:15:53.231Z,3.58
2018-07-20T18:18:26.735Z,3.20
2018-07-20T18:21:00.140Z,3.37
2018-07-20T18:23:34.315Z,3.50
2018-07-20T18:26:08.049Z,3.72
2018-07-20T18:28:41.965Z,3.40
2018-07-20T18:31:15.878Z,3.22
2018-07-20T18:33:50.351Z,3.60
2018-07-20T18:36:24.013Z,3.52
2018-07-20T18:38:58.620Z,3.47
2018-07-20T18:41:33.130Z,3.20
2018-07-20T18:44:06.851Z,3.33
2018-07-20T18:46:40.273Z,3.22
2018-07-20T18:49:14.666Z,3.20
2018-07-20T18:51:48.756Z,3.60
2018-07-20T18:54:22.929Z,3.33
2018-07-20T18:56:56.783Z,3.50
2018-07-20T18:59:30.593Z,2.70
2018-07-20T19:02:04.017Z,3.08
2018-07-20T19:04:38.213Z,2.60
2018-07-20T19:07:12.320Z,2.90
2018-07-20T19:09:47.800Z,2.67
2018-07-20T19:12:22.361Z,2.60
2018-07-20T19:14:57.247Z,3.10
2018-07-20T19:17:31.951Z,2.98
2018-07-20T19:20:06.164Z,2.90
2018-07-20T19:22:40.452Z,3.10
2018-07-20T19:25:14.201Z,2.77
2018-07-20T19:27:48.706Z,2.80
2018-07-20T19:30:22.609Z,2.65
2018-07-20T19:32:56.068Z,3.12
2018-07-20T19:35:29.702Z,3.02
2018-07-20T19:38:03.141Z,2.95
2018-07-20T19:40:36.548Z,2.70
2018-07-20T19:43:09.927Z,2.95
2018-07-20T19:45:43.324Z,3.00
2018-07-20T19:48:16.739Z,2.42
2018-07-20T19:50:50.669Z,2.47
2018-07-20T19:53:24.615Z,2.42
2018-07-20T19:55:58.515Z,2.58
2018-07-20T19:58:32.495Z,2.67
2018-07-20T20:01:06.826Z,2.50
2018-07-20T20:03:40.873Z,2.45
2018-07-20T20:06:14.648Z,2.33
2018-07-20T20:08:48.056Z,2.60
2018-07-20T20:11:22.497Z,2.55
2018-07-20T20:13:56.503Z,2.40
2018-07-20T20:16:30.269Z,2.42
2018-07-20T20:19:04.171Z,2.33
2018-07-20T20:21:38.068Z,2.08
2018-07-20T20:24:11.914Z,2.00
2018-07-20T20:26:47.016Z,2.72
2018-07-20T20:29:21.430Z,2.33
2018-07-20T20:31:56.311Z,2.02
2018-07-20T20:34:30.787Z,2.45
2018-07-20T20:37:05.086Z,2.70
2018-07-20T20:39:38.589Z,2.40
2018-07-20T20:42:12.023Z,2.15
2018-07-20T20:44:45.413Z,2.83
2018-07-20T20:47:34.455Z,2.30
2018-07-20T20:50:09.093Z,2.67
2018-07-20T20:52:42.516Z,2.58
2018-07-20T20:55:16.056Z,2.50
2018-07-20T20:57:49.451Z,2.67
2018-07-20T21:00:23.779Z,2.77
2018-07-20T21:02:58.404Z,2.67
2018-07-20T21:05:33.070Z,3.10
2018-07-20T21:08:08.463Z,2.87
2018-07-20T21:10:43.800Z,3.30
2018-07-20T21:13:18.410Z,3.00
2018-07-20T21:15:53.125Z,2.70
2018-07-20T21:18:27.291Z,2.72
2018-07-20T21:21:00.824Z,2.60
2018-07-20T21:23:34.234Z,3.05
2018-07-20T21:26:08.485Z,3.00
2018-07-20T21:28:45.125Z,2.95
2018-07-20T21:31:21.272Z,3.05
2018-07-20T21:33:55.947Z,3.00
2018-07-20T21:36:30.513Z,3.20
2018-07-20T21:39:06.357Z,3.05
2018-07-20T21:41:40.379Z,2.80
2018-07-20T21:44:13.876Z,3.30
2018-07-20T21:46:47.368Z,3.17
2018-07-20T21:49:20.765Z,3.17
2018-07-20T21:51:54.302Z,3.15
2018-07-20T21:54:27.833Z,2.77
2018-07-20T21:57:02.080Z,3.27
2018-07-20T21:59:35.534Z,2.80
2018-07-20T22:02:08.947Z,2.72
2018-07-20T22:04:42.835Z,2.95
2018-07-20T22:07:16.227Z,3.30
2018-07-20T22:09:50.817Z,3.00
2018-07-20T22:12:24.208Z,3.80
2018-07-20T22:14:57.652Z,3.52
2018-07-20T22:17:31.824Z,3.30
2018-07-20T22:20:06.574Z,3.08
2018-07-20T22:22:40.528Z,2.90
2018-07-20T22:25:14.509Z,2.87
2018-07-20T22:27:47.955Z,3.27
2018-07-20T22:30:21.438Z,2.98
2018-07-20T22:32:55.034Z,3.02
2018-07-20T22:35:28.957Z,3.20
2018-07-20T22:38:03.519Z,2.92
2018-07-20T22:40:38.115Z,3.20
2018-07-20T22:43:13.165Z,3.65
2018-07-20T22:45:47.716Z,3.40
2018-07-20T22:48:22.134Z,2.95
2018-07-20T22:50:56.817Z,3.50
2018-07-20T22:53:31.958Z,3.75
2018-07-20T22:56:06.403Z,2.98
2018-07-20T22:58:40.972Z,3.65
2018-07-20T23:01:15.507Z,3.05
2018-07-20T23:03:50.305Z,3.08
2018-07-20T23:06:24.822Z,3.40
2018-07-20T23:09:00.258Z,3.25
2018-07-20T23:11:35.049Z,3.60
2018-07-20T23:14:09.563Z,3.55
2018-07-20T23:16:44.284Z,3.58
2018-07-20T23:19:18.889Z,3.27
2018-07-20T23:21:53.442Z,3.27
2018-07-20T23:24:28.104Z,3.58
2018-07-20T23:27:02.949Z,3.20
2018-07-20T23:29:37.788Z,2.92
2018-07-20T23:32:12.497Z,3.62
2018-07-20T23:34:46.944Z,3.10
2018-07-20T23:37:21.540Z,3.67
2018-07-20T23:39:56.914Z,3.37
2018-07-20T23:42:32.230Z,3.62
2018-07-20T23:45:08.075Z,3.37
2018-07-20T23:47:43.301Z,3.62
2018-07-20T23:50:18.214Z,3.50
2018-07-20T23:52:52.666Z,3.42
2018-07-20T23:55:27.358Z,3.30
2018-07-20T23:58:02.047Z,3.42
